createdAt,value
2017-04-27T00:00:53.751Z,0
2017-04-27T00:01:54.766Z,0
2017-04-27T00:02:55.527Z,0
2017-04-27T00:03:56.290Z,0
2017-04-27T00:04:57.055Z,0
2017-04-27T00:05:57.817Z,0
2017-04-27T00:06:58.835Z,0
2017-04-27T00:07:59.595Z,0
2017-04-27T00:09:00.359Z,0
2017-04-27T00:10:01.121Z,0
2017-04-27T00:11:01.885Z,0
2017-04-27T00:12:02.899Z,0
2017-04-27T00:13:03.660Z,0
2017-04-27T00:14:04.423Z,0
2017-04-27T00:15:05.189Z,0
2017-04-27T00:16:05.954Z,0
2017-04-27T00:17:06.969Z,0
2017-04-27T00:18:07.732Z,0
2017-04-27T00:19:08.496Z,0
2017-04-27T00:20:09.452Z,0
2017-04-27T00:21:10.213Z,0
2017-04-27T00:22:11.222Z,0
2017-04-27T00:23:11.983Z,0
2017-04-27T00:24:12.745Z,0
2017-04-27T00:25:13.548Z,0
2017-04-27T00:26:14.315Z,0
2017-04-27T00:27:15.517Z,0
2017-04-27T00:28:16.280Z,0
2017-04-27T00:29:17.041Z,0
2017-04-27T00:30:17.810Z,0
2017-04-27T00:31:18.576Z,0
2017-04-27T00:32:19.590Z,0
2017-04-27T00:33:20.358Z,0
2017-04-27T00:34:21.118Z,0
2017-04-27T00:35:21.880Z,0
2017-04-27T00:36:22.644Z,0
2017-04-27T00:37:23.655Z,0
2017-04-27T00:38:24.418Z,0
2017-04-27T00:39:25.182Z,0
2017-04-27T00:40:25.947Z,0
2017-04-27T00:41:26.712Z,0
2017-04-27T00:42:27.726Z,0
2017-04-27T00:43:28.489Z,0
2017-04-27T00:44:29.253Z,0
2017-04-27T00:45:30.016Z,0
2017-04-27T00:46:30.781Z,0
2017-04-27T00:47:31.792Z,0
2017-04-27T00:48:32.557Z,0
2017-04-27T00:49:33.321Z,0
2017-04-27T00:50:34.336Z,0
2017-04-27T00:51:35.100Z,0
2017-04-27T00:52:35.865Z,0
2017-04-27T00:53:36.628Z,0
2017-04-27T00:54:37.395Z,0
2017-04-27T00:55:38.408Z,0
2017-04-27T00:56:39.175Z,0
2017-04-27T00:57:39.939Z,0
2017-04-27T00:58:40.704Z,0
2017-04-27T00:59:41.469Z,0
2017-04-27T01:00:42.486Z,0
2017-04-27T01:01:43.250Z,0
2017-04-27T01:02:44.011Z,0
2017-04-27T01:03:44.775Z,0
2017-04-27T01:04:45.540Z,0
2017-04-27T01:05:46.553Z,0
2017-04-27T01:06:47.318Z,0
2017-04-27T01:07:48.081Z,0
2017-04-27T01:08:48.849Z,0
2017-04-27T01:09:49.615Z,0
2017-04-27T01:10:50.628Z,0
2017-04-27T01:11:51.393Z,0
2017-04-27T01:12:52.159Z,0
2017-04-27T01:13:52.923Z,0
2017-04-27T01:14:53.689Z,0
2017-04-27T01:15:54.704Z,0
2017-04-27T01:16:55.469Z,0
2017-04-27T01:17:56.236Z,0
2017-04-27T01:18:57.001Z,0
2017-04-27T01:19:57.765Z,0
2017-04-27T01:20:58.789Z,0
2017-04-27T01:21:59.592Z,0
2017-04-27T01:23:00.355Z,0
2017-04-27T01:24:01.119Z,0
2017-04-27T01:25:01.887Z,0
2017-04-27T01:26:02.900Z,0
2017-04-27T01:27:03.664Z,0
2017-04-27T01:28:04.434Z,0
2017-04-27T01:29:05.196Z,0
2017-04-27T01:30:05.963Z,0
2017-04-27T01:31:06.977Z,0
2017-04-27T01:32:07.742Z,0
2017-04-27T01:33:08.507Z,0
2017-04-27T01:34:09.276Z,0
2017-04-27T01:35:10.041Z,0
2017-04-27T01:36:11.055Z,0
2017-04-27T01:37:11.820Z,0
2017-04-27T01:38:12.583Z,0
2017-04-27T01:39:13.347Z,0
2017-04-27T01:40:14.113Z,0
2017-04-27T01:41:15.129Z,0
2017-04-27T01:42:15.894Z,0
2017-04-27T01:43:16.661Z,0
2017-04-27T01:44:17.425Z,0
2017-04-27T01:45:18.190Z,0
2017-04-27T01:46:19.205Z,0
2017-04-27T01:47:19.969Z,0
2017-04-27T01:48:20.733Z,0
2017-04-27T01:49:21.503Z,0
2017-04-27T01:50:22.263Z,0
2017-04-27T01:51:23.278Z,0
2017-04-27T01:52:24.043Z,0
2017-04-27T01:53:24.809Z,0
2017-04-27T01:54:25.573Z,0
2017-04-27T01:55:26.334Z,0
2017-04-27T01:56:27.350Z,0
2017-04-27T01:57:28.113Z,0
2017-04-27T01:58:28.879Z,0
2017-04-27T01:59:29.646Z,0
2017-04-27T02:00:30.412Z,0
2017-04-27T02:01:31.427Z,0
2017-04-27T02:02:32.192Z,0
2017-04-27T02:03:32.958Z,0
2017-04-27T02:04:33.725Z,0
2017-04-27T02:05:34.490Z,0
2017-04-27T02:06:35.505Z,0
2017-04-27T02:07:36.277Z,0
2017-04-27T02:08:37.031Z,0
2017-04-27T02:09:37.795Z,0
2017-04-27T02:10:38.559Z,0
2017-04-27T02:11:39.575Z,0
2017-04-27T02:12:40.336Z,0
2017-04-27T02:13:41.100Z,0
2017-04-27T02:14:41.862Z,0
2017-04-27T02:15:42.625Z,0
2017-04-27T02:16:43.640Z,0
2017-04-27T02:17:44.402Z,0
2017-04-27T02:18:45.167Z,0
2017-04-27T02:19:45.933Z,0
2017-04-27T02:20:46.698Z,0
2017-04-27T02:21:47.716Z,0
2017-04-27T02:22:48.483Z,0
2017-04-27T02:23:49.251Z,0
2017-04-27T02:24:50.017Z,0
2017-04-27T02:25:50.789Z,0
2017-04-27T02:26:51.798Z,0
2017-04-27T02:27:52.562Z,0
2017-04-27T02:28:53.330Z,0
2017-04-27T02:29:54.097Z,0
2017-04-27T02:30:54.856Z,0
2017-04-27T02:31:55.870Z,0
2017-04-27T02:32:56.632Z,0
2017-04-27T02:33:57.395Z,0
2017-04-27T02:34:58.163Z,0
2017-04-27T02:35:58.927Z,0
2017-04-27T02:36:59.944Z,0
2017-04-27T02:38:00.710Z,0
2017-04-27T02:39:01.484Z,0
2017-04-27T02:40:02.238Z,0
2017-04-27T02:41:03.000Z,0
2017-04-27T02:42:04.014Z,0
2017-04-27T02:43:04.779Z,0
2017-04-27T02:44:05.542Z,0
2017-04-27T02:45:06.303Z,0
2017-04-27T02:46:07.072Z,0
2017-04-27T02:47:08.086Z,0
2017-04-27T02:48:08.853Z,0
2017-04-27T02:49:09.621Z,0
2017-04-27T02:50:10.385Z,0
2017-04-27T02:51:11.149Z,0
2017-04-27T02:52:12.163Z,0
2017-04-27T02:53:12.928Z,0
2017-04-27T02:54:13.692Z,0
2017-04-27T02:55:14.455Z,0
2017-04-27T02:56:15.219Z,0
2017-04-27T02:57:16.235Z,0
2017-04-27T02:58:16.997Z,0
2017-04-27T02:59:17.758Z,0
2017-04-27T03:00:18.524Z,0
2017-04-27T03:01:19.286Z,0
2017-04-27T03:02:20.303Z,0
2017-04-27T03:03:21.066Z,0
2017-04-27T03:04:21.830Z,0
2017-04-27T03:05:22.595Z,0
2017-04-27T03:06:23.359Z,0
2017-04-27T03:07:24.371Z,0
2017-04-27T03:08:25.131Z,0
2017-04-27T03:09:25.898Z,0
2017-04-27T03:10:26.663Z,0
2017-04-27T03:11:27.425Z,0
2017-04-27T03:12:28.446Z,0
2017-04-27T03:13:29.202Z,0
2017-04-27T03:14:29.969Z,0
2017-04-27T03:15:30.729Z,0
2017-04-27T03:16:31.489Z,0
2017-04-27T03:17:32.503Z,0
2017-04-27T03:18:33.267Z,0
2017-04-27T03:19:34.033Z,0
2017-04-27T03:20:34.795Z,0
2017-04-27T03:21:35.561Z,0
2017-04-27T03:22:36.579Z,0
2017-04-27T03:23:37.343Z,0
2017-04-27T03:24:38.104Z,0
2017-04-27T03:25:38.867Z,0
2017-04-27T03:26:39.632Z,0
2017-04-27T03:27:40.645Z,0
2017-04-27T03:28:41.413Z,0
2017-04-27T03:29:42.177Z,0
2017-04-27T03:30:42.939Z,0
2017-04-27T03:31:43.703Z,0
2017-04-27T03:32:44.720Z,0
2017-04-27T03:33:45.487Z,0
2017-04-27T03:34:46.251Z,0
2017-04-27T03:35:47.012Z,4
2017-04-27T03:36:47.777Z,0
2017-04-27T03:37:48.790Z,0
2017-04-27T03:38:49.555Z,4
2017-04-27T03:39:50.317Z,0
2017-04-27T03:40:51.083Z,4
2017-04-27T03:41:51.849Z,4
2017-04-27T03:42:52.865Z,8
2017-04-27T03:43:53.821Z,8
2017-04-27T03:44:54.583Z,8
2017-04-27T03:45:55.347Z,8
2017-04-27T03:46:56.111Z,12
2017-04-27T03:47:57.126Z,12
2017-04-27T03:48:57.894Z,16
2017-04-27T03:49:58.664Z,16
2017-04-27T03:50:59.426Z,20
2017-04-27T03:52:00.190Z,20
2017-04-27T03:53:01.209Z,28
2017-04-27T03:54:01.977Z,28
2017-04-27T03:55:02.739Z,36
2017-04-27T03:56:03.507Z,40
2017-04-27T03:57:04.269Z,44
2017-04-27T03:58:05.284Z,52
2017-04-27T03:59:06.048Z,56
2017-04-27T04:00:06.814Z,60
2017-04-27T04:01:07.577Z,68
2017-04-27T04:02:08.343Z,80
2017-04-27T04:03:09.359Z,88
2017-04-27T04:04:10.121Z,100
2017-04-27T04:05:11.077Z,108
2017-04-27T04:06:11.840Z,120
2017-04-27T04:07:12.608Z,132
2017-04-27T04:08:13.628Z,148
2017-04-27T04:09:14.394Z,160
2017-04-27T04:10:15.160Z,172
2017-04-27T04:11:15.923Z,188
2017-04-27T04:12:16.690Z,204
2017-04-27T04:13:17.708Z,220
2017-04-27T04:14:18.476Z,240
2017-04-27T04:15:19.247Z,252
2017-04-27T04:16:20.205Z,276
2017-04-27T04:17:20.972Z,288
2017-04-27T04:18:21.985Z,312
2017-04-27T04:19:22.754Z,332
2017-04-27T04:20:23.520Z,352
2017-04-27T04:21:24.287Z,372
2017-04-27T04:22:25.054Z,392
2017-04-27T04:23:26.070Z,416
2017-04-27T04:24:26.837Z,436
2017-04-27T04:25:27.603Z,464
2017-04-27T04:26:28.368Z,484
2017-04-27T04:27:29.132Z,508
2017-04-27T04:28:30.153Z,536
2017-04-27T04:29:30.922Z,568
2017-04-27T04:30:31.880Z,592
2017-04-27T04:31:32.647Z,620
2017-04-27T04:32:33.413Z,648
2017-04-27T04:33:34.429Z,676
2017-04-27T04:34:35.199Z,704
2017-04-27T04:35:35.967Z,732
2017-04-27T04:36:36.737Z,764
2017-04-27T04:37:37.500Z,796
2017-04-27T04:38:38.519Z,828
2017-04-27T04:39:39.286Z,864
2017-04-27T04:40:40.055Z,888
2017-04-27T04:41:40.825Z,916
2017-04-27T04:42:41.590Z,940
2017-04-27T04:43:42.608Z,964
2017-04-27T04:44:43.380Z,996
2017-04-27T04:45:44.151Z,1036
2017-04-27T04:46:44.919Z,1072
2017-04-27T04:47:45.687Z,1112
2017-04-27T04:48:46.703Z,1160
2017-04-27T04:49:47.475Z,1212
2017-04-27T04:50:48.243Z,1252
2017-04-27T04:51:49.012Z,1288
2017-04-27T04:52:49.796Z,1320
2017-04-27T04:53:50.800Z,1352
2017-04-27T04:54:51.570Z,1376
2017-04-27T04:55:52.338Z,1396
2017-04-27T04:56:53.107Z,1412
2017-04-27T04:57:53.876Z,1432
2017-04-27T04:58:54.899Z,1456
2017-04-27T04:59:55.669Z,1476
2017-04-27T05:00:56.443Z,1496
2017-04-27T05:01:57.213Z,1516
2017-04-27T05:02:57.978Z,1532
2017-04-27T05:03:58.996Z,1544
2017-04-27T05:04:59.767Z,1560
2017-04-27T05:06:00.533Z,1572
2017-04-27T05:07:01.303Z,1584
2017-04-27T05:08:02.072Z,1596
2017-04-27T05:09:03.091Z,1608
2017-04-27T05:10:03.862Z,1632
2017-04-27T05:11:04.628Z,1648
2017-04-27T05:12:05.399Z,1680
2017-04-27T05:13:06.168Z,1700
2017-04-27T05:14:07.189Z,1720
2017-04-27T05:15:07.956Z,1712
2017-04-27T05:16:08.726Z,1696
2017-04-27T05:17:09.493Z,1752
2017-04-27T05:18:10.261Z,1792
2017-04-27T05:19:11.279Z,1852
2017-04-27T05:20:12.051Z,1884
2017-04-27T05:21:12.820Z,1912
2017-04-27T05:22:13.591Z,1928
2017-04-27T05:23:14.544Z,1936
2017-04-27T05:24:15.564Z,1936
2017-04-27T05:25:16.335Z,1936
2017-04-27T05:26:17.105Z,1944
2017-04-27T05:27:17.873Z,1952
2017-04-27T05:28:18.642Z,1960
2017-04-27T05:29:19.664Z,1976
2017-04-27T05:30:20.433Z,1988
2017-04-27T05:31:21.199Z,1996
2017-04-27T05:32:21.967Z,2020
2017-04-27T05:33:22.736Z,2040
2017-04-27T05:34:23.756Z,2068
2017-04-27T05:35:24.529Z,2092
2017-04-27T05:36:25.296Z,2120
2017-04-27T05:37:26.072Z,2152
2017-04-27T05:38:26.837Z,2180
2017-04-27T05:39:27.861Z,2208
2017-04-27T05:40:28.628Z,2244
2017-04-27T05:41:29.398Z,2268
2017-04-27T05:42:30.170Z,2296
2017-04-27T05:43:30.945Z,2328
2017-04-27T05:44:31.960Z,2356
2017-04-27T05:45:32.730Z,2388
2017-04-27T05:46:33.502Z,2416
2017-04-27T05:47:34.269Z,2440
2017-04-27T05:48:35.043Z,2448
2017-04-27T05:49:36.063Z,2456
2017-04-27T05:50:36.831Z,2464
2017-04-27T05:51:37.603Z,2468
2017-04-27T05:52:38.374Z,2464
2017-04-27T05:53:39.142Z,2468
2017-04-27T05:54:40.166Z,2472
2017-04-27T05:55:40.942Z,2480
2017-04-27T05:56:41.708Z,2476
2017-04-27T05:57:42.479Z,2472
2017-04-27T05:58:43.251Z,2484
2017-04-27T05:59:44.272Z,2492
2017-04-27T06:00:45.045Z,2512
2017-04-27T06:01:45.817Z,2540
2017-04-27T06:02:46.594Z,2560
2017-04-27T06:03:47.357Z,2568
2017-04-27T06:04:48.377Z,2580
2017-04-27T06:05:49.147Z,2584
2017-04-27T06:06:49.920Z,2600
2017-04-27T06:07:50.689Z,2612
2017-04-27T06:08:51.463Z,2624
2017-04-27T06:09:52.486Z,2648
2017-04-27T06:10:53.256Z,2664
2017-04-27T06:11:54.029Z,2684
2017-04-27T06:12:54.800Z,2700
2017-04-27T06:13:55.571Z,2716
2017-04-27T06:14:56.593Z,2740
2017-04-27T06:15:57.365Z,2752
2017-04-27T06:16:58.317Z,2760
2017-04-27T06:17:59.094Z,2780
2017-04-27T06:18:59.858Z,2796
2017-04-27T06:20:00.880Z,2816
2017-04-27T06:21:01.699Z,2832
2017-04-27T06:22:02.418Z,2856
2017-04-27T06:23:03.191Z,2872
2017-04-27T06:24:03.964Z,2884
2017-04-27T06:25:04.988Z,2896
2017-04-27T06:26:05.759Z,2912
2017-04-27T06:27:06.530Z,2920
2017-04-27T06:28:07.302Z,2924
2017-04-27T06:29:08.097Z,2940
2017-04-27T06:30:09.098Z,2960
2017-04-27T06:31:09.868Z,2976
2017-04-27T06:32:10.642Z,2996
2017-04-27T06:33:11.416Z,3012
2017-04-27T06:34:12.190Z,3028
2017-04-27T06:35:13.211Z,3052
2017-04-27T06:36:13.983Z,3080
2017-04-27T06:37:14.755Z,3120
2017-04-27T06:38:15.529Z,3164
2017-04-27T06:39:16.302Z,3216
2017-04-27T06:40:17.323Z,3264
2017-04-27T06:41:18.097Z,3336
2017-04-27T06:42:19.059Z,3400
2017-04-27T06:43:19.834Z,3484
2017-04-27T06:44:20.605Z,3568
2017-04-27T06:45:21.636Z,3628
2017-04-27T06:46:22.404Z,3668
2017-04-27T06:47:23.174Z,3700
2017-04-27T06:48:23.949Z,3744
2017-04-27T06:49:24.726Z,3784
2017-04-27T06:50:25.752Z,3808
2017-04-27T06:51:26.528Z,3836
2017-04-27T06:52:27.306Z,3864
2017-04-27T06:53:28.082Z,3904
2017-04-27T06:54:28.857Z,3964
2017-04-27T06:55:29.884Z,3996
2017-04-27T06:56:30.662Z,4044
2017-04-27T06:57:31.439Z,4100
2017-04-27T06:58:32.217Z,4164
2017-04-27T06:59:32.996Z,4244
2017-04-27T07:00:34.022Z,4316
2017-04-27T07:01:34.800Z,4388
2017-04-27T07:02:35.576Z,4468
2017-04-27T07:03:36.358Z,4584
2017-04-27T07:04:37.136Z,4644
2017-04-27T07:05:38.165Z,4728
2017-04-27T07:06:38.947Z,4812
2017-04-27T07:07:39.728Z,4888
2017-04-27T07:08:40.508Z,4988
2017-04-27T07:09:41.289Z,5108
2017-04-27T07:10:42.320Z,5400
2017-04-27T07:11:43.098Z,5436
2017-04-27T07:12:43.877Z,5548
2017-04-27T07:13:44.659Z,5760
2017-04-27T07:14:45.445Z,5956
2017-04-27T07:15:46.482Z,6284
2017-04-27T07:16:47.262Z,6528
2017-04-27T07:17:48.041Z,6944
2017-04-27T07:18:48.821Z,7768
2017-04-27T07:19:49.602Z,10044
2017-04-27T07:20:50.637Z,15488
2017-04-27T07:21:51.605Z,23904
2017-04-27T07:22:52.390Z,31136
2017-04-27T07:23:53.174Z,5464
2017-04-27T07:24:53.956Z,4308
2017-04-27T07:25:54.986Z,5208
2017-04-27T07:26:55.768Z,37440
2017-04-27T07:27:56.550Z,37216
2017-04-27T07:28:57.335Z,34944
2017-04-27T07:29:58.116Z,39648
2017-04-27T07:30:59.152Z,41888
2017-04-27T07:31:59.935Z,43744
2017-04-27T07:33:00.719Z,45472
2017-04-27T07:34:01.501Z,5384
2017-04-27T07:35:02.286Z,5292
2017-04-27T07:36:03.320Z,9724
2017-04-27T07:37:04.102Z,43552
2017-04-27T07:38:04.885Z,44096
2017-04-27T07:39:05.667Z,46080
2017-04-27T07:40:06.450Z,45088
2017-04-27T07:41:07.483Z,6056
2017-04-27T07:42:08.261Z,4688
2017-04-27T07:43:09.041Z,4608
2017-04-27T07:44:09.824Z,4812
2017-04-27T07:45:10.609Z,6336
2017-04-27T07:46:11.644Z,46112
2017-04-27T07:47:12.428Z,44480
2017-04-27T07:48:13.211Z,46240
2017-04-27T07:49:13.997Z,47072
2017-04-27T07:50:14.786Z,47392
2017-04-27T07:51:15.823Z,52640
2017-04-27T07:52:16.614Z,53600
2017-04-27T07:53:17.419Z,52032
2017-04-27T07:54:18.197Z,11692
2017-04-27T07:55:18.980Z,12720
2017-04-27T07:56:20.020Z,56352
2017-04-27T07:57:20.810Z,56416
2017-04-27T07:58:21.599Z,40096
2017-04-27T07:59:22.390Z,10260
2017-04-27T08:00:23.181Z,10032
2017-04-27T08:01:24.218Z,9136
2017-04-27T08:02:25.068Z,7736
2017-04-27T08:03:25.853Z,7128
2017-04-27T08:04:26.637Z,7072
2017-04-27T08:05:27.422Z,6432
2017-04-27T08:06:28.459Z,6736
2017-04-27T08:07:29.242Z,6688
2017-04-27T08:08:30.021Z,6500
2017-04-27T08:09:30.804Z,6380
2017-04-27T08:10:31.587Z,61632
2017-04-27T08:11:32.621Z,58464
2017-04-27T08:12:33.408Z,59264
2017-04-27T08:13:34.201Z,62144
2017-04-27T08:14:34.978Z,63776
2017-04-27T08:15:35.769Z,62432
2017-04-27T08:16:36.818Z,62944
2017-04-27T08:17:37.597Z,62944
2017-04-27T08:18:38.387Z,64032
2017-04-27T08:19:39.177Z,63200
2017-04-27T08:20:39.971Z,55872
2017-04-27T08:21:41.009Z,65728
2017-04-27T08:22:41.803Z,67840
2017-04-27T08:23:42.592Z,70432
2017-04-27T08:24:43.379Z,70816
2017-04-27T08:25:44.168Z,70432
2017-04-27T08:26:45.208Z,68672
2017-04-27T08:27:45.997Z,67488
2017-04-27T08:28:46.786Z,63328
2017-04-27T08:29:47.577Z,65344
2017-04-27T08:30:48.365Z,24192
2017-04-27T08:31:49.403Z,64672
2017-04-27T08:32:50.196Z,66720
2017-04-27T08:33:50.985Z,67584
2017-04-27T08:34:51.773Z,19456
2017-04-27T08:35:52.561Z,34752
2017-04-27T08:36:53.601Z,51296
2017-04-27T08:37:54.392Z,74816
2017-04-27T08:38:55.182Z,73664
2017-04-27T08:39:55.976Z,71296
2017-04-27T08:40:56.764Z,71776
2017-04-27T08:41:57.805Z,72288
2017-04-27T08:42:58.596Z,73856
2017-04-27T08:43:59.386Z,74368
2017-04-27T08:45:00.178Z,73664
2017-04-27T08:46:00.970Z,13660
2017-04-27T08:47:02.010Z,13976
2017-04-27T08:48:02.796Z,74016
2017-04-27T08:49:03.586Z,78752
2017-04-27T08:50:04.376Z,29440
2017-04-27T08:51:05.160Z,14864
2017-04-27T08:52:06.200Z,33504
2017-04-27T08:53:06.989Z,13720
2017-04-27T08:54:07.774Z,9880
2017-04-27T08:55:08.563Z,76672
2017-04-27T08:56:09.349Z,75328
2017-04-27T08:57:10.389Z,73888
2017-04-27T08:58:11.178Z,74464
2017-04-27T08:59:11.968Z,75520
2017-04-27T09:00:12.756Z,75648
2017-04-27T09:01:13.545Z,74848
2017-04-27T09:02:14.584Z,76576
2017-04-27T09:03:15.373Z,72928
2017-04-27T09:04:16.192Z,75648
2017-04-27T09:05:16.953Z,73440
2017-04-27T09:06:17.744Z,76480
2017-04-27T09:07:18.786Z,73760
2017-04-27T09:08:19.572Z,72800
2017-04-27T09:09:20.363Z,75168
2017-04-27T09:10:21.153Z,79776
2017-04-27T09:11:21.949Z,77728
2017-04-27T09:12:22.994Z,61120
2017-04-27T09:13:23.784Z,11500
2017-04-27T09:14:24.574Z,11208
2017-04-27T09:15:25.361Z,8604
2017-04-27T09:16:26.150Z,7712
2017-04-27T09:17:27.183Z,7452
2017-04-27T09:18:27.976Z,10524
2017-04-27T09:19:28.765Z,74944
2017-04-27T09:20:29.553Z,78048
2017-04-27T09:21:30.342Z,75712
2017-04-27T09:22:31.382Z,76128
2017-04-27T09:23:32.172Z,79936
2017-04-27T09:24:32.963Z,78752
2017-04-27T09:25:33.753Z,79744
2017-04-27T09:26:34.552Z,78400
2017-04-27T09:27:35.591Z,76672
2017-04-27T09:28:36.382Z,78432
2017-04-27T09:29:37.174Z,79712
2017-04-27T09:30:37.966Z,78912
2017-04-27T09:31:38.761Z,81088
2017-04-27T09:32:39.807Z,81984
2017-04-27T09:33:40.598Z,81696
2017-04-27T09:34:41.391Z,10440
2017-04-27T09:35:42.183Z,12356
2017-04-27T09:36:42.972Z,87168
2017-04-27T09:37:44.014Z,21888
2017-04-27T09:38:44.802Z,17888
2017-04-27T09:39:45.593Z,88672
2017-04-27T09:40:46.383Z,87200
2017-04-27T09:41:47.175Z,65664
2017-04-27T09:42:48.217Z,48160
2017-04-27T09:43:49.006Z,64064
2017-04-27T09:44:49.796Z,9028
2017-04-27T09:45:50.583Z,8908
2017-04-27T09:46:51.372Z,15752
2017-04-27T09:47:52.462Z,12464
2017-04-27T09:48:53.247Z,80224
2017-04-27T09:49:54.037Z,66144
2017-04-27T09:50:54.827Z,77216
2017-04-27T09:51:55.617Z,81632
2017-04-27T09:52:56.707Z,77024
2017-04-27T09:53:57.499Z,83840
2017-04-27T09:54:58.290Z,88128
2017-04-27T09:55:59.082Z,88288
2017-04-27T09:56:59.876Z,90176
2017-04-27T09:58:00.967Z,88320
2017-04-27T09:59:01.760Z,87456
2017-04-27T10:00:02.554Z,89152
2017-04-27T10:01:03.346Z,88672
2017-04-27T10:02:04.138Z,86464
2017-04-27T10:03:05.237Z,87744
2017-04-27T10:04:06.030Z,90272
2017-04-27T10:05:06.829Z,96416
2017-04-27T10:06:07.626Z,93536
2017-04-27T10:07:08.426Z,90752
2017-04-27T10:08:09.529Z,89408
2017-04-27T10:09:10.325Z,90016
2017-04-27T10:10:11.130Z,94976
2017-04-27T10:11:11.932Z,93888
2017-04-27T10:12:12.736Z,91360
2017-04-27T10:13:13.786Z,90816
2017-04-27T10:14:14.590Z,88672
2017-04-27T10:15:15.396Z,89888
2017-04-27T10:16:16.204Z,88928
2017-04-27T10:17:17.012Z,86272
2017-04-27T10:18:18.067Z,91552
2017-04-27T10:19:18.873Z,89856
2017-04-27T10:20:19.679Z,80128
2017-04-27T10:21:20.480Z,91136
2017-04-27T10:22:21.284Z,91008
2017-04-27T10:23:22.338Z,32192
2017-04-27T10:24:23.137Z,43200
2017-04-27T10:25:23.938Z,11864
2017-04-27T10:26:24.738Z,10332
2017-04-27T10:27:25.536Z,9616
2017-04-27T10:28:26.582Z,9928
2017-04-27T10:29:27.379Z,10728
2017-04-27T10:30:28.162Z,11884
2017-04-27T10:31:28.952Z,13136
2017-04-27T10:32:29.744Z,14432
2017-04-27T10:33:30.781Z,15504
2017-04-27T10:34:31.575Z,18432
2017-04-27T10:35:32.362Z,53568
2017-04-27T10:36:33.144Z,19296
2017-04-27T10:37:33.934Z,93120
2017-04-27T10:38:34.973Z,22720
2017-04-27T10:39:35.759Z,48928
2017-04-27T10:40:36.549Z,47712
2017-04-27T10:41:37.340Z,60448
2017-04-27T10:42:38.130Z,76672
2017-04-27T10:43:39.172Z,85536
2017-04-27T10:44:39.961Z,87232
2017-04-27T10:45:40.749Z,93152
2017-04-27T10:46:41.539Z,91264
2017-04-27T10:47:42.331Z,92224
2017-04-27T10:48:43.374Z,92256
2017-04-27T10:49:44.168Z,28704
2017-04-27T10:50:44.963Z,52640
2017-04-27T10:51:45.753Z,30144
2017-04-27T10:52:46.544Z,17536
2017-04-27T10:53:47.584Z,11808
2017-04-27T10:54:48.372Z,11272
2017-04-27T10:55:49.161Z,11144
2017-04-27T10:56:49.949Z,11680
2017-04-27T10:57:50.739Z,13940
2017-04-27T10:58:51.780Z,20320
2017-04-27T10:59:52.569Z,92160
2017-04-27T11:00:53.360Z,95712
2017-04-27T11:01:54.152Z,92224
2017-04-27T11:02:54.944Z,99232
2017-04-27T11:03:56.039Z,101472
2017-04-27T11:04:56.827Z,95776
2017-04-27T11:05:57.617Z,88448
2017-04-27T11:06:58.407Z,97056
2017-04-27T11:07:59.198Z,94080
2017-04-27T11:09:00.290Z,88480
2017-04-27T11:10:01.081Z,83392
2017-04-27T11:11:01.874Z,92320
2017-04-27T11:12:02.667Z,88576
2017-04-27T11:13:03.456Z,80480
2017-04-27T11:14:04.549Z,87840
2017-04-27T11:15:05.345Z,93088
2017-04-27T11:16:06.137Z,85920
2017-04-27T11:17:06.934Z,80832
2017-04-27T11:18:07.722Z,83744
2017-04-27T11:19:08.816Z,87296
2017-04-27T11:20:09.611Z,83488
2017-04-27T11:21:10.406Z,85568
2017-04-27T11:22:11.209Z,84480
2017-04-27T11:23:11.999Z,86912
2017-04-27T11:24:13.099Z,87680
2017-04-27T11:25:13.897Z,89664
2017-04-27T11:26:14.695Z,92768
2017-04-27T11:27:15.492Z,81504
2017-04-27T11:28:16.293Z,89504
2017-04-27T11:29:17.398Z,95968
2017-04-27T11:30:18.194Z,92096
2017-04-27T11:31:18.998Z,13364
2017-04-27T11:32:19.796Z,11796
2017-04-27T11:33:20.590Z,11584
2017-04-27T11:34:21.680Z,12652
2017-04-27T11:35:22.473Z,16284
2017-04-27T11:36:23.265Z,28288
2017-04-27T11:37:24.059Z,95296
2017-04-27T11:38:24.852Z,93248
2017-04-27T11:39:25.913Z,91456
2017-04-27T11:40:26.685Z,92736
2017-04-27T11:41:27.476Z,90848
2017-04-27T11:42:28.272Z,85408
2017-04-27T11:43:29.063Z,88800
2017-04-27T11:44:30.105Z,49056
2017-04-27T11:45:30.897Z,14724
2017-04-27T11:46:31.688Z,14820
2017-04-27T11:47:32.479Z,20224
2017-04-27T11:48:33.269Z,67328
2017-04-27T11:49:34.313Z,89248
2017-04-27T11:50:35.109Z,83200
2017-04-27T11:51:35.900Z,14884
2017-04-27T11:52:36.690Z,12020
2017-04-27T11:53:37.479Z,12644
2017-04-27T11:54:38.517Z,13640
2017-04-27T11:55:39.306Z,17152
2017-04-27T11:56:40.094Z,83040
2017-04-27T11:57:40.886Z,87136
2017-04-27T11:58:41.678Z,90240
2017-04-27T11:59:42.720Z,89696
2017-04-27T12:00:43.513Z,85600
2017-04-27T12:01:44.306Z,88032
2017-04-27T12:02:45.096Z,88608
2017-04-27T12:03:45.887Z,88736
2017-04-27T12:04:46.929Z,91360
2017-04-27T12:05:47.723Z,89216
2017-04-27T12:06:48.518Z,89920
2017-04-27T12:07:49.312Z,89536
2017-04-27T12:08:50.110Z,86720
2017-04-27T12:09:51.154Z,87296
2017-04-27T12:10:51.949Z,90336
2017-04-27T12:11:52.747Z,46080
2017-04-27T12:12:53.544Z,29760
2017-04-27T12:13:54.335Z,14692
2017-04-27T12:14:55.375Z,15268
2017-04-27T12:15:56.167Z,43136
2017-04-27T12:16:56.960Z,32192
2017-04-27T12:17:57.747Z,16544
2017-04-27T12:18:58.536Z,20928
2017-04-27T12:19:59.578Z,36320
2017-04-27T12:21:00.368Z,30144
2017-04-27T12:22:01.159Z,92800
2017-04-27T12:23:01.949Z,87104
2017-04-27T12:24:02.739Z,85472
2017-04-27T12:25:03.779Z,34112
2017-04-27T12:26:04.575Z,35360
2017-04-27T12:27:05.552Z,81152
2017-04-27T12:28:06.340Z,88352
2017-04-27T12:29:07.134Z,88992
2017-04-27T12:30:08.176Z,88704
2017-04-27T12:31:08.967Z,86080
2017-04-27T12:32:09.756Z,81728
2017-04-27T12:33:10.547Z,84704
2017-04-27T12:34:11.340Z,82592
2017-04-27T12:35:12.386Z,83488
2017-04-27T12:36:13.179Z,88192
2017-04-27T12:37:13.971Z,87520
2017-04-27T12:38:14.763Z,89600
2017-04-27T12:39:15.557Z,91072
2017-04-27T12:40:16.602Z,89888
2017-04-27T12:41:17.397Z,86912
2017-04-27T12:42:18.193Z,83776
2017-04-27T12:43:18.992Z,81824
2017-04-27T12:44:19.784Z,81344
2017-04-27T12:45:20.829Z,83232
2017-04-27T12:46:21.625Z,77920
2017-04-27T12:47:22.420Z,86720
2017-04-27T12:48:23.218Z,91584
2017-04-27T12:49:24.015Z,88416
2017-04-27T12:50:25.066Z,80224
2017-04-27T12:51:25.861Z,47712
2017-04-27T12:52:26.844Z,48512
2017-04-27T12:53:27.632Z,27872
2017-04-27T12:54:28.422Z,62240
2017-04-27T12:55:29.464Z,24800
2017-04-27T12:56:30.256Z,25632
2017-04-27T12:57:31.080Z,19776
2017-04-27T12:58:31.840Z,68384
2017-04-27T12:59:32.632Z,24928
2017-04-27T13:00:33.671Z,36928
2017-04-27T13:01:34.463Z,22400
2017-04-27T13:02:35.254Z,69600
2017-04-27T13:03:36.044Z,23360
2017-04-27T13:04:36.834Z,27808
2017-04-27T13:05:37.871Z,19616
2017-04-27T13:06:38.663Z,22336
2017-04-27T13:07:39.448Z,20480
2017-04-27T13:08:40.239Z,29568
2017-04-27T13:09:41.023Z,17408
2017-04-27T13:10:42.063Z,26944
2017-04-27T13:11:43.044Z,22368
2017-04-27T13:12:43.830Z,19904
2017-04-27T13:13:44.620Z,19712
2017-04-27T13:14:45.402Z,25120
2017-04-27T13:15:46.440Z,32768
2017-04-27T13:16:47.228Z,27424
2017-04-27T13:17:48.017Z,28768
2017-04-27T13:18:48.803Z,26848
2017-04-27T13:19:49.589Z,25312
2017-04-27T13:20:50.642Z,25664
2017-04-27T13:21:51.413Z,28192
2017-04-27T13:22:52.203Z,34496
2017-04-27T13:23:52.997Z,24448
2017-04-27T13:24:53.789Z,20960
2017-04-27T13:25:54.827Z,25792
2017-04-27T13:26:55.614Z,21504
2017-04-27T13:27:56.404Z,23488
2017-04-27T13:28:57.193Z,37440
2017-04-27T13:29:57.978Z,78528
2017-04-27T13:30:59.020Z,65504
2017-04-27T13:31:59.812Z,26016
2017-04-27T13:33:00.602Z,28224
2017-04-27T13:34:01.392Z,18656
2017-04-27T13:35:02.180Z,19104
2017-04-27T13:36:03.217Z,17088
2017-04-27T13:37:04.006Z,17344
2017-04-27T13:38:04.797Z,37728
2017-04-27T13:39:05.584Z,28544
2017-04-27T13:40:06.368Z,13944
2017-04-27T13:41:07.403Z,12708
2017-04-27T13:42:08.194Z,11532
2017-04-27T13:43:08.981Z,10604